GSTL EHEH-EHEH

Flight info

Callsign GSTL
Flight time 0h 6m
Altitude 1000
Route TRAFFIC PATTERN
Aircraft C172/L-SFG/S

Departure

Time 2026-04-28 08:42
Airport Eindhoven Airport (EHEH)

Arrival

Time 2026-04-28 08:49
Airport Eindhoven Airport (EHEH)
Time Latitude Longitude Altitude Speed Heading
2026-04-28 08:31 51.45497 5.38492 79 ft 0 kts 356°
2026-04-28 08:36 51.45518 5.38520 79 ft 13 kts 46°
2026-04-28 08:37 51.45627 5.38646 79 ft 20 kts 37°
2026-04-28 08:37 51.45745 5.38779 79 ft 18 kts 37°
2026-04-28 08:37 51.45812 5.38729 79 ft 8 kts 303°
2026-04-28 08:37 51.45823 5.38704 79 ft 0 kts 307°
2026-04-28 08:38 51.45859 5.38625 79 ft 19 kts 305°
2026-04-28 08:38 51.45944 5.38430 79 ft 20 kts 306°
2026-04-28 08:38 51.45988 5.38267 79 ft 12 kts 224°
2026-04-28 08:38 51.45895 5.38162 79 ft 24 kts 212°
2026-04-28 08:39 51.45750 5.37997 79 ft 21 kts 211°
2026-04-28 08:39 51.45630 5.37864 79 ft 21 kts 217°
2026-04-28 08:39 51.45509 5.37730 79 ft 21 kts 214°
2026-04-28 08:39 51.45388 5.37594 79 ft 21 kts 215°
2026-04-28 08:40 51.45266 5.37458 79 ft 21 kts 216°
2026-04-28 08:40 51.45143 5.37319 79 ft 21 kts 214°
2026-04-28 08:40 51.45017 5.37181 79 ft 21 kts 214°
2026-04-28 08:40 51.44895 5.37042 79 ft 21 kts 213°
2026-04-28 08:41 51.44789 5.36986 79 ft 13 kts 137°
2026-04-28 08:41 51.44774 5.37010 79 ft 0 kts 133°
2026-04-28 08:41 51.44765 5.37025 79 ft 10 kts 131°
2026-04-28 08:41 51.44740 5.37145 79 ft 17 kts 33°
2026-04-28 08:42 51.44983 5.37415 134 ft 59 kts 28°
2026-04-28 08:42 51.45345 5.37826 394 ft 68 kts 34°
2026-04-28 08:42 51.45757 5.38270 574 ft 84 kts 33°
2026-04-28 08:42 51.46273 5.38769 676 ft 82 kts 13°
2026-04-28 08:43 51.46590 5.38112 758 ft 100 kts 266°
2026-04-28 08:43 51.46112 5.37263 760 ft 108 kts 211°
2026-04-28 08:43 51.45507 5.36546 789 ft 106 kts 211°
2026-04-28 08:43 51.44896 5.35853 778 ft 108 kts 210°
2026-04-28 08:44 51.44291 5.35130 714 ft 104 kts 217°
2026-04-28 08:44 51.43756 5.34485 587 ft 86 kts 216°
2026-04-28 08:44 51.43332 5.34561 510 ft 67 kts 101°
2026-04-28 08:44 51.43319 5.35277 398 ft 75 kts 64°
2026-04-28 08:45 51.43675 5.35944 230 ft 86 kts 36°
2026-04-28 08:45 51.44140 5.36470 116 ft 73 kts 39°
2026-04-28 08:45 51.44496 5.36873 82 ft 50 kts 33°
2026-04-28 08:45 51.44791 5.37194 98 ft 68 kts 40°
2026-04-28 08:46 51.45190 5.37614 425 ft 67 kts 29°
2026-04-28 08:46 51.45588 5.38152 582 ft 83 kts 34°
2026-04-28 08:46 51.46091 5.38543 698 ft 79 kts
2026-04-28 08:46 51.46320 5.37770 750 ft 98 kts 246°
2026-04-28 08:47 51.45901 5.36907 751 ft 95 kts 220°
2026-04-28 08:47 51.45376 5.36295 764 ft 92 kts 211°
2026-04-28 08:47 51.44819 5.35734 724 ft 97 kts 210°
2026-04-28 08:47 51.44243 5.35167 695 ft 97 kts 205°
2026-04-28 08:48 51.43666 5.34654 641 ft 90 kts 181°
2026-04-28 08:48 51.43301 5.35212 521 ft 72 kts 74°
2026-04-28 08:48 51.43555 5.35796 361 ft 61 kts 39°
2026-04-28 08:48 51.43891 5.36189 177 ft 58 kts 39°
2026-04-28 08:49 51.44191 5.36528 107 ft 50 kts 30°
2026-04-28 08:49 51.44449 5.36817 79 ft 39 kts 37°
2026-04-28 08:49 51.44692 5.37094 79 ft 45 kts 33°
2026-04-28 08:49 51.44922 5.37349 79 ft 35 kts 36°
2026-04-28 08:50 51.45113 5.37557 79 ft 30 kts 38°
2026-04-28 08:50 51.45295 5.37766 79 ft 40 kts 31°
2026-04-28 08:50 51.45518 5.38018 79 ft 33 kts 34°
2026-04-28 08:50 51.45682 5.38198 79 ft 23 kts 30°
2026-04-28 08:51 51.45825 5.38363 79 ft 30 kts 37°
2026-04-28 08:51 51.45905 5.38521 79 ft 15 kts 122°
2026-04-28 08:51 51.45823 5.38700 79 ft 18 kts 122°
2026-04-28 08:51 51.45752 5.38788 79 ft 12 kts 211°
2026-04-28 08:52 51.45658 5.38683 79 ft 19 kts 216°
2026-04-28 08:52 51.45560 5.38574 79 ft 15 kts 214°
2026-04-28 08:52 51.45478 5.38524 79 ft 10 kts 216°